Time,TemperatureF,DewpointF,PressureIn,WindDirection,WindDirectionDegrees,WindSpeedMPH,WindSpeedGustMPH,Humidity,HourlyPrecipIn,Conditions,Clouds,dailyrainin,SoftwareType,DateUTC
2013-05-22 00:00:00,68.5,68.5,29.99,ENE,62,0.0,0.0,100,0.00,,,0.02,Wunderground v.1.15,2013-05-22 04:00:00,
2013-05-22 00:05:00,68.4,68.4,29.99,ENE,62,0.0,0.0,100,0.00,,,0.00,Wunderground v.1.15,2013-05-22 04:05:00,
2013-05-22 00:10:00,68.3,68.3,29.99,ENE,62,0.0,0.0,100,0.00,,,0.00,Wunderground v.1.15,2013-05-22 04:10:00,
2013-05-22 00:15:00,68.2,68.2,29.99,ENE,61,0.0,0.0,100,0.00,,,0.00,Wunderground v.1.15,2013-05-22 04:15:00,
2013-05-22 00:20:00,68.1,68.1,29.98,ENE,62,0.0,0.0,100,0.00,,,0.00,Wunderground v.1.15,2013-05-22 04:20:00,
2013-05-22 00:30:00,67.9,67.9,29.98,ENE,62,0.0,0.0,100,0.00,,,0.00,Wunderground v.1.15,2013-05-22 04:30:00,
2013-05-22 00:35:00,67.7,67.7,29.98,ENE,62,0.0,0.0,100,0.00,,,0.00,Wunderground v.1.15,2013-05-22 04:35:00,
2013-05-22 00:40:00,67.5,67.5,29.98,ENE,62,0.0,0.0,100,0.00,,,0.00,Wunderground v.1.15,2013-05-22 04:40:00,
2013-05-22 00:50:00,67.4,67.4,29.98,ENE,61,0.0,0.0,100,0.00,,,0.00,Wunderground v.1.15,2013-05-22 04:50:00,
2013-05-22 01:00:00,67.1,67.1,29.98,ENE,63,0.0,0.0,100,0.00,,,0.00,Wunderground v.1.15,2013-05-22 05:00:00,
2013-05-22 01:10:00,66.9,66.9,29.97,ENE,63,0.0,0.0,100,0.00,,,0.00,Wunderground v.1.15,2013-05-22 05:10:00,
2013-05-22 01:15:00,66.8,66.8,29.96,ENE,63,0.0,0.0,100,0.00,,,0.00,Wunderground v.1.15,2013-05-22 05:15:00,
2013-05-22 01:20:00,66.7,66.7,29.96,ENE,63,0.0,0.0,100,0.00,,,0.00,Wunderground v.1.15,2013-05-22 05:20:00,
2013-05-22 01:30:00,66.6,66.6,29.96,ENE,63,0.0,0.0,100,0.00,,,0.00,Wunderground v.1.15,2013-05-22 05:30:00,
2013-05-22 01:40:00,66.4,66.4,29.96,ENE,63,0.0,0.0,100,0.00,,,0.00,Wunderground v.1.15,2013-05-22 05:40:00,
2013-05-22 01:45:00,66.3,66.3,29.95,ENE,63,0.0,0.0,100,0.00,,,0.00,Wunderground v.1.15,2013-05-22 05:45:00,
2013-05-22 01:55:00,66.1,66.1,29.95,ENE,63,0.0,0.0,100,0.00,,,0.00,Wunderground v.1.15,2013-05-22 05:55:00,
2013-05-22 02:00:00,66.0,66.0,29.95,ENE,63,0.0,0.0,100,0.00,,,0.00,Wunderground v.1.15,2013-05-22 06:00:00,
2013-05-22 02:10:00,65.9,65.9,29.95,ENE,63,0.0,0.0,100,0.00,,,0.00,Wunderground v.1.15,2013-05-22 06:10:00,
2013-05-22 02:20:00,65.7,65.7,29.94,ENE,63,0.0,0.0,100,0.00,,,0.00,Wunderground v.1.15,2013-05-22 06:20:00,
2013-05-22 02:25:00,65.6,65.6,29.94,ENE,63,0.0,0.0,100,0.00,,,0.00,Wunderground v.1.15,2013-05-22 06:25:00,
2013-05-22 02:35:00,65.4,65.4,29.93,ENE,63,0.0,0.0,100,0.00,,,0.00,Wunderground v.1.15,2013-05-22 06:35:00,
2013-05-22 02:40:00,65.3,65.3,29.93,ENE,63,0.0,0.0,100,0.00,,,0.00,Wunderground v.1.15,2013-05-22 06:40:00,
2013-05-22 02:50:00,65.2,65.2,29.93,ENE,63,0.0,0.0,100,0.00,,,0.00,Wunderground v.1.15,2013-05-22 06:50:00,
2013-05-22 03:00:00,65.2,65.2,29.93,ENE,63,0.0,0.0,100,0.00,,,0.00,Wunderground v.1.15,2013-05-22 07:00:00,
2013-05-22 03:05:00,65.2,65.2,29.93,ENE,63,0.0,0.0,100,0.00,,,0.00,Wunderground v.1.15,2013-05-22 07:05:00,
2013-05-22 03:10:00,65.2,65.2,29.93,ENE,63,0.0,0.0,100,0.00,,,0.00,Wunderground v.1.15,2013-05-22 07:10:00,
2013-05-22 03:20:00,65.1,65.1,29.92,ENE,63,0.0,0.0,100,0.00,,,0.00,Wunderground v.1.15,2013-05-22 07:20:00,
2013-05-22 03:30:00,64.9,64.9,29.92,ENE,63,0.0,0.0,100,0.00,,,0.00,Wunderground v.1.15,2013-05-22 07:30:00,
2013-05-22 03:39:00,64.9,64.9,29.92,ENE,63,0.0,0.0,100,0.00,,,0.00,Wunderground v.1.15,2013-05-22 07:39:00,
2013-05-22 03:45:00,64.8,64.8,29.92,ENE,63,0.0,0.0,100,0.00,,,0.00,Wunderground v.1.15,2013-05-22 07:45:00,
2013-05-22 03:50:00,64.8,64.8,29.92,ENE,63,0.0,0.0,100,0.00,,,0.00,Wunderground v.1.15,2013-05-22 07:50:00,
2013-05-22 04:00:00,64.7,64.7,29.92,ENE,63,0.0,0.0,100,0.00,,,0.00,Wunderground v.1.15,2013-05-22 08:00:00,
2013-05-22 04:10:00,64.5,64.5,29.92,ENE,63,0.0,0.0,100,0.00,,,0.00,Wunderground v.1.15,2013-05-22 08:10:00,
2013-05-22 04:15:00,64.5,64.5,29.92,ENE,63,0.0,0.0,100,0.00,,,0.00,Wunderground v.1.15,2013-05-22 08:15:00,
2013-05-22 04:20:00,64.4,64.4,29.92,ENE,63,0.0,0.0,100,0.00,,,0.00,Wunderground v.1.15,2013-05-22 08:20:00,
2013-05-22 04:30:00,64.3,64.3,29.92,ENE,63,0.0,0.0,100,0.00,,,0.00,Wunderground v.1.15,2013-05-22 08:30:00,
2013-05-22 04:40:00,64.2,64.2,29.92,ENE,63,0.0,0.0,100,0.00,,,0.00,Wunderground v.1.15,2013-05-22 08:40:00,
2013-05-22 04:49:00,64.0,64.0,29.93,ENE,63,0.0,0.0,100,0.00,,,0.00,Wunderground v.1.15,2013-05-22 08:49:00,
2013-05-22 04:55:00,64.0,64.0,29.93,ENE,63,0.0,0.0,100,0.00,,,0.00,Wunderground v.1.15,2013-05-22 08:55:00,
2013-05-22 05:00:00,63.9,63.9,29.92,ENE,63,0.0,0.0,100,0.00,,,0.00,Wunderground v.1.15,2013-05-22 09:00:00,
2013-05-22 05:10:00,63.7,63.7,29.92,ENE,63,0.0,0.0,100,0.00,,,0.00,Wunderground v.1.15,2013-05-22 09:10:00,
2013-05-22 05:20:00,63.5,63.5,29.93,ENE,63,0.0,0.0,100,0.00,,,0.00,Wunderground v.1.15,2013-05-22 09:20:00,
2013-05-22 05:30:00,63.4,63.4,29.94,ENE,63,0.0,0.0,100,0.00,,,0.00,Wunderground v.1.15,2013-05-22 09:30:00,
2013-05-22 05:40:00,63.3,63.3,29.94,ENE,63,0.0,0.0,100,0.00,,,0.00,Wunderground v.1.15,2013-05-22 09:40:00,
2013-05-22 05:50:00,63.2,63.2,29.94,ENE,63,0.0,0.0,100,0.00,,,0.00,Wunderground v.1.15,2013-05-22 09:50:00,
2013-05-22 05:59:00,63.2,63.2,29.94,ENE,63,0.0,0.0,100,0.00,,,0.00,Wunderground v.1.15,2013-05-22 09:59:00,
2013-05-22 06:05:00,63.2,63.2,29.94,ENE,63,0.0,0.0,100,0.00,,,0.00,Wunderground v.1.15,2013-05-22 10:05:00,
2013-05-22 06:15:00,63.3,63.3,29.94,ENE,63,0.0,0.0,100,0.00,,,0.00,Wunderground v.1.15,2013-05-22 10:15:00,
2013-05-22 06:20:00,63.3,63.3,29.95,ENE,63,0.0,0.0,100,0.00,,,0.00,Wunderground v.1.15,2013-05-22 10:20:00,
2013-05-22 06:30:00,63.3,63.3,29.95,ENE,63,0.0,0.0,100,0.00,,,0.00,Wunderground v.1.15,2013-05-22 10:30:00,
2013-05-22 06:35:00,63.3,63.3,29.95,ENE,63,0.0,0.0,100,0.00,,,0.00,Wunderground v.1.15,2013-05-22 10:35:00,
2013-05-22 06:40:00,63.4,63.4,29.95,ENE,63,0.0,0.0,100,0.00,,,0.00,Wunderground v.1.15,2013-05-22 10:40:00,
2013-05-22 06:50:00,63.5,63.5,29.95,ENE,63,0.0,0.0,100,0.00,,,0.00,Wunderground v.1.15,2013-05-22 10:50:00,
2013-05-22 07:00:00,63.6,63.6,29.95,East,80,0.0,0.0,100,0.00,,,0.00,Wunderground v.1.15,2013-05-22 11:00:00,
2013-05-22 07:10:00,63.8,63.8,29.95,East,80,0.0,0.0,100,0.00,,,0.00,Wunderground v.1.15,2013-05-22 11:10:00,
2013-05-22 07:15:00,63.9,63.9,29.96,East,81,0.0,0.0,100,0.00,,,0.00,Wunderground v.1.15,2013-05-22 11:15:00,
2013-05-22 07:20:00,64.1,64.1,29.96,East,81,0.0,0.0,100,0.00,,,0.00,Wunderground v.1.15,2013-05-22 11:20:00,
2013-05-22 07:30:00,64.4,64.4,29.96,East,80,0.0,0.0,100,0.00,,,0.00,Wunderground v.1.15,2013-05-22 11:30:00,
2013-05-22 07:39:00,64.8,64.8,29.96,East,80,0.0,0.0,100,0.00,,,0.00,Wunderground v.1.15,2013-05-22 11:39:00,
2013-05-22 07:45:00,65.0,65.0,29.96,East,81,0.0,0.0,100,0.00,,,0.00,Wunderground v.1.15,2013-05-22 11:45:00,
2013-05-22 07:50:00,65.1,65.1,29.96,East,80,0.0,0.0,100,0.00,,,0.00,Wunderground v.1.15,2013-05-22 11:50:00,
2013-05-22 08:00:00,65.6,65.6,29.96,East,80,0.0,0.0,100,0.00,,,0.00,Wunderground v.1.15,2013-05-22 12:00:00,
2013-05-22 08:09:00,66.1,66.1,29.97,East,81,0.0,0.0,100,0.00,,,0.00,Wunderground v.1.15,2013-05-22 12:09:00,
2013-05-22 08:15:00,66.1,66.1,29.97,East,81,0.0,0.0,100,0.00,,,0.00,Wunderground v.1.15,2013-05-22 12:15:00,
2013-05-22 08:20:00,66.2,66.2,29.97,East,81,0.0,0.0,100,0.00,,,0.00,Wunderground v.1.15,2013-05-22 12:20:00,
2013-05-22 08:30:00,66.3,66.3,29.97,East,81,0.0,0.0,100,0.00,,,0.00,Wunderground v.1.15,2013-05-22 12:30:00,
2013-05-22 08:40:00,66.3,66.3,29.97,East,80,0.0,0.0,100,0.00,,,0.00,Wunderground v.1.15,2013-05-22 12:40:00,
2013-05-22 08:50:00,66.7,66.7,29.97,East,80,0.0,0.0,100,0.00,,,0.00,Wunderground v.1.15,2013-05-22 12:50:00,
2013-05-22 09:00:00,67.0,67.0,29.97,East,84,0.0,0.0,100,0.00,,,0.00,Wunderground v.1.15,2013-05-22 13:00:00,
2013-05-22 09:10:00,67.3,67.3,29.97,East,84,0.0,0.0,100,0.00,,,0.00,Wunderground v.1.15,2013-05-22 13:10:00,
2013-05-22 09:20:00,67.6,67.6,29.98,East,84,0.0,0.0,100,0.00,,,0.00,Wunderground v.1.15,2013-05-22 13:20:00,
2013-05-22 09:30:00,68.0,68.0,29.97,East,84,0.0,0.0,100,0.00,,,0.00,Wunderground v.1.15,2013-05-22 13:30:00,
2013-05-22 09:40:00,68.3,68.3,29.97,East,84,0.0,0.0,100,0.00,,,0.00,Wunderground v.1.15,2013-05-22 13:40:00,
2013-05-22 09:50:00,68.8,68.8,29.97,North,349,0.0,0.0,100,0.00,,,0.00,Wunderground v.1.15,2013-05-22 13:50:00,
2013-05-22 10:00:00,69.4,69.4,29.97,North,350,0.0,0.0,100,0.00,,,0.00,Wunderground v.1.15,2013-05-22 14:00:00,
2013-05-22 10:05:00,69.6,69.6,29.96,North,350,0.0,0.0,100,0.00,,,0.00,Wunderground v.1.15,2013-05-22 14:05:00,
2013-05-22 10:15:00,70.1,70.1,29.96,North,349,0.0,0.0,100,0.00,,,0.00,Wunderground v.1.15,2013-05-22 14:15:00,
2013-05-22 10:20:00,70.4,70.4,29.96,North,350,0.0,1.0,100,0.00,,,0.00,Wunderground v.1.15,2013-05-22 14:20:00,
2013-05-22 10:30:00,71.0,70.7,29.96,North,355,0.0,0.0,99,0.00,,,0.00,Wunderground v.1.15,2013-05-22 14:30:00,
2013-05-22 10:40:00,71.6,71.0,29.96,North,355,0.0,0.0,98,0.00,,,0.00,Wunderground v.1.15,2013-05-22 14:40:00,
2013-05-22 10:45:00,71.9,71.0,29.96,North,355,0.0,0.0,97,0.00,,,0.00,Wunderground v.1.15,2013-05-22 14:45:00,
2013-05-22 10:55:00,72.6,71.7,29.96,North,355,0.0,0.0,97,0.00,,,0.00,Wunderground v.1.15,2013-05-22 14:55:00,
2013-05-22 11:00:00,72.9,71.7,29.96,North,355,0.0,0.0,96,0.00,,,0.00,Wunderground v.1.15,2013-05-22 15:00:00,
2013-05-22 11:10:00,73.4,71.9,29.96,North,355,0.0,0.0,95,0.00,,,0.00,Wunderground v.1.15,2013-05-22 15:10:00,
2013-05-22 11:19:00,73.9,73.0,29.96,North,355,0.0,0.0,97,0.00,,,0.00,Wunderground v.1.15,2013-05-22 15:19:00,
2013-05-22 11:25:00,74.0,72.2,29.96,North,355,0.0,0.0,94,0.00,,,0.00,Wunderground v.1.15,2013-05-22 15:25:00,
2013-05-22 11:35:00,74.3,72.8,29.96,North,355,0.0,0.0,95,0.00,,,0.00,Wunderground v.1.15,2013-05-22 15:35:00,
2013-05-22 11:40:00,74.5,73.6,29.96,North,355,0.0,0.0,97,0.00,,,0.00,Wunderground v.1.15,2013-05-22 15:40:00,
2013-05-22 11:50:00,74.8,72.6,29.96,North,355,0.0,0.0,93,0.00,,,0.00,Wunderground v.1.15,2013-05-22 15:50:00,
2013-05-22 11:55:00,75.1,72.9,29.96,North,355,0.0,0.0,93,0.00,,,0.00,Wunderground v.1.15,2013-05-22 15:55:00,
2013-05-22 12:00:00,75.4,73.6,29.96,North,355,0.0,0.0,94,0.00,,,0.00,Wunderground v.1.15,2013-05-22 16:00:00,
2013-05-22 12:10:00,76.0,73.2,29.96,North,355,0.0,0.0,91,0.00,,,0.00,Wunderground v.1.15,2013-05-22 16:10:00,
2013-05-22 12:20:00,76.7,74.5,29.96,North,355,0.0,0.0,93,0.00,,,0.00,Wunderground v.1.15,2013-05-22 16:20:00,
2013-05-22 12:29:00,77.3,74.5,29.96,North,355,0.0,0.0,91,0.00,,,0.00,Wunderground v.1.15,2013-05-22 16:29:00,
2013-05-22 12:35:00,77.4,73.9,29.95,North,355,0.0,0.0,89,0.00,,,0.00,Wunderground v.1.15,2013-05-22 16:35:00,
2013-05-22 12:40:00,77.6,73.8,29.95,North,355,0.0,0.0,88,0.00,,,0.00,Wunderground v.1.15,2013-05-22 16:40:00,
2013-05-22 12:50:00,78.2,74.4,29.95,North,355,0.0,0.0,88,0.00,,,0.00,Wunderground v.1.15,2013-05-22 16:50:00,
2013-05-22 13:00:00,79.8,75.9,29.95,North,355,0.0,0.0,88,0.00,,,0.00,Wunderground v.1.15,2013-05-22 17:00:00,
2013-05-22 13:05:00,80.4,75.1,29.94,North,355,0.0,0.0,84,0.00,,,0.00,Wunderground v.1.15,2013-05-22 17:05:00,
2013-05-22 13:10:00,80.1,73.7,29.94,North,355,0.0,0.0,81,0.00,,,0.00,Wunderground v.1.15,2013-05-22 17:10:00,
2013-05-22 13:20:00,81.5,75.5,29.94,North,355,0.0,0.0,82,0.00,,,0.00,Wunderground v.1.15,2013-05-22 17:20:00,
2013-05-22 13:30:00,81.8,74.6,29.94,North,355,0.0,0.0,79,0.00,,,0.00,Wunderground v.1.15,2013-05-22 17:30:00,
2013-05-22 13:35:00,82.2,75.4,29.93,North,355,0.0,0.0,80,0.00,,,0.00,Wunderground v.1.15,2013-05-22 17:35:00,
2013-05-22 13:40:00,82.9,74.9,29.93,North,355,0.0,0.0,77,0.00,,,0.00,Wunderground v.1.15,2013-05-22 17:40:00,
2013-05-22 13:50:00,82.4,73.3,29.93,North,355,0.0,0.0,74,0.00,,,0.00,Wunderground v.1.15,2013-05-22 17:50:00,
2013-05-22 14:00:00,81.2,72.1,29.93,North,355,0.0,0.0,74,0.00,,,0.00,Wunderground v.1.15,2013-05-22 18:00:00,
2013-05-22 14:10:00,82.3,72.8,29.92,North,355,0.0,0.0,73,0.00,,,0.00,Wunderground v.1.15,2013-05-22 18:10:00,
2013-05-22 14:15:00,83.0,73.0,29.91,North,355,0.0,0.0,72,0.00,,,0.00,Wunderground v.1.15,2013-05-22 18:15:00,
2013-05-22 14:20:00,83.3,72.9,29.91,North,355,0.0,2.0,71,0.00,,,0.00,Wunderground v.1.15,2013-05-22 18:20:00,
2013-05-22 14:30:00,83.0,71.3,29.91,SE,144,1.0,1.0,68,0.00,,,0.00,Wunderground v.1.15,2013-05-22 18:30:00,
2013-05-22 14:40:00,83.9,73.1,29.91,SE,144,0.0,2.0,70,0.00,,,0.00,Wunderground v.1.15,2013-05-22 18:40:00,
2013-05-22 14:50:00,85.1,72.0,29.89,SE,144,0.0,0.0,65,0.00,,,0.00,Wunderground v.1.15,2013-05-22 18:50:00,
2013-05-22 15:00:00,84.8,71.7,29.89,SE,144,0.0,1.0,65,0.00,,,0.00,Wunderground v.1.15,2013-05-22 19:00:00,
2013-05-22 15:10:00,83.9,71.3,29.89,SE,144,0.0,0.0,66,0.00,,,0.00,Wunderground v.1.15,2013-05-22 19:10:00,
2013-05-22 15:19:00,82.6,71.0,29.88,SE,144,0.0,0.0,68,0.00,,,0.00,Wunderground v.1.15,2013-05-22 19:19:00,
2013-05-22 15:25:00,83.4,71.3,29.88,SE,144,0.0,0.0,67,0.00,,,0.00,Wunderground v.1.15,2013-05-22 19:25:00,
2013-05-22 15:30:00,84.5,72.3,29.88,SE,140,0.0,0.0,67,0.00,,,0.00,Wunderground v.1.15,2013-05-22 19:30:00,
2013-05-22 15:40:00,85.8,77.8,29.88,SE,141,0.0,0.0,77,0.00,,,0.00,Wunderground v.1.15,2013-05-22 19:40:00,
2013-05-22 17:40:00,82.5,69.5,29.84,SSE,150,0.0,1.0,65,0.00,,,0.00,Wunderground v.1.15,2013-05-22 21:40:00,
2013-05-22 17:45:00,82.3,69.8,29.84,SSE,149,1.0,1.0,66,0.00,,,0.00,Wunderground v.1.15,2013-05-22 21:45:00,
2013-05-22 17:55:00,82.0,68.6,29.84,SSE,159,1.0,1.0,64,0.00,,,0.00,Wunderground v.1.15,2013-05-22 21:55:00,
2013-05-22 18:00:00,81.8,68.9,29.84,SSE,164,0.0,0.0,65,0.00,,,0.00,Wunderground v.1.15,2013-05-22 22:00:00,
2013-05-22 18:10:00,81.2,68.8,29.85,South,186,0.0,1.0,66,0.00,,,0.00,Wunderground v.1.15,2013-05-22 22:10:00,
2013-05-22 18:15:00,80.9,69.8,29.85,South,170,0.0,0.0,69,0.00,,,0.00,Wunderground v.1.15,2013-05-22 22:15:00,
2013-05-22 18:20:00,80.5,69.8,29.85,South,171,0.0,0.0,70,0.00,,,0.00,Wunderground v.1.15,2013-05-22 22:20:00,
2013-05-22 18:25:00,80.2,69.9,29.85,South,172,0.0,0.0,71,0.00,,,0.00,Wunderground v.1.15,2013-05-22 22:25:00,
2013-05-22 18:30:00,80.1,70.3,29.85,South,172,0.0,0.0,72,0.00,,,0.00,Wunderground v.1.15,2013-05-22 22:30:00,
2013-05-22 18:40:00,80.0,70.2,29.85,South,169,0.0,0.0,72,0.00,,,0.00,Wunderground v.1.15,2013-05-22 22:40:00,
2013-05-22 18:50:00,79.6,69.4,29.85,SSE,164,0.0,0.0,71,0.00,,,0.00,Wunderground v.1.15,2013-05-22 22:50:00,
2013-05-22 19:00:00,79.4,70.0,29.85,SSE,164,0.0,0.0,73,0.00,,,0.00,Wunderground v.1.15,2013-05-22 23:00:00,
2013-05-22 19:05:00,79.3,69.5,29.86,NNW,346,0.0,0.0,72,0.00,,,0.00,Wunderground v.1.15,2013-05-22 23:05:00,
2013-05-22 19:10:00,79.1,69.7,29.86,North,355,0.0,0.0,73,0.00,,,0.00,Wunderground v.1.15,2013-05-22 23:10:00,
2013-05-22 19:20:00,78.6,70.8,29.86,NNE,24,0.0,0.0,77,0.00,,,0.00,Wunderground v.1.15,2013-05-22 23:20:00,
2013-05-22 19:30:00,78.0,71.0,29.86,NNE,24,0.0,0.0,79,0.00,,,0.00,Wunderground v.1.15,2013-05-22 23:30:00,
2013-05-22 19:40:00,77.2,70.9,29.86,NNE,24,0.0,0.0,81,0.00,,,0.00,Wunderground v.1.15,2013-05-22 23:40:00,
2013-05-22 19:50:00,76.6,70.0,29.87,NNE,24,0.0,0.0,80,0.00,,,0.00,Wunderground v.1.15,2013-05-22 23:50:00,
2013-05-22 20:00:00,76.2,70.3,29.87,NNE,19,0.0,0.0,82,0.00,,,0.00,Wunderground v.1.15,2013-05-23 00:00:00,
2013-05-22 20:10:00,75.7,70.5,29.86,NNE,19,0.0,0.0,84,0.00,,,0.00,Wunderground v.1.15,2013-05-23 00:10:00,
2013-05-22 20:15:00,75.4,70.2,29.87,NNE,19,0.0,0.0,84,0.00,,,0.00,Wunderground v.1.15,2013-05-23 00:15:00,
2013-05-22 20:25:00,74.5,70.7,29.87,NNE,20,0.0,0.0,88,0.00,,,0.00,Wunderground v.1.15,2013-05-23 00:25:00,
2013-05-22 20:30:00,74.2,70.7,29.87,NNE,20,0.0,0.0,89,0.00,,,0.00,Wunderground v.1.15,2013-05-23 00:30:00,
2013-05-22 20:40:00,73.4,70.3,29.87,NNE,19,0.0,0.0,90,0.00,,,0.00,Wunderground v.1.15,2013-05-23 00:40:00,
2013-05-22 20:50:00,72.7,70.6,29.88,NNE,20,0.0,0.0,93,0.00,,,0.00,Wunderground v.1.15,2013-05-23 00:50:00,
2013-05-22 20:55:00,72.2,69.7,29.88,NNE,20,0.0,0.0,92,0.00,,,0.00,Wunderground v.1.15,2013-05-23 00:55:00,
2013-05-22 21:05:00,71.4,69.6,29.89,NNE,20,0.0,0.0,94,0.00,,,0.00,Wunderground v.1.15,2013-05-23 01:05:00,
2013-05-22 21:10:00,71.2,69.1,29.89,NNE,19,0.0,0.0,93,0.00,,,0.00,Wunderground v.1.15,2013-05-23 01:10:00,
2013-05-22 21:20:00,70.5,68.7,29.89,NNE,19,0.0,0.0,94,0.00,,,0.00,Wunderground v.1.15,2013-05-23 01:20:00,
2013-05-22 21:30:00,69.8,68.6,29.89,NNE,20,0.0,0.0,96,0.00,,,0.00,Wunderground v.1.15,2013-05-23 01:30:00,
2013-05-22 21:35:00,69.6,68.4,29.89,NNE,20,0.0,0.0,96,0.00,,,0.00,Wunderground v.1.15,2013-05-23 01:35:00,
2013-05-22 21:45:00,69.2,68.3,29.89,NNE,20,0.0,0.0,97,0.00,,,0.00,Wunderground v.1.15,2013-05-23 01:45:00,
2013-05-22 21:50:00,69.0,68.1,29.89,NNE,19,0.0,0.0,97,0.00,,,0.00,Wunderground v.1.15,2013-05-23 01:50:00,
2013-05-22 22:00:00,68.6,68.0,29.89,NNE,20,0.0,0.0,98,0.00,,,0.00,Wunderground v.1.15,2013-05-23 02:00:00,
2013-05-22 22:10:00,68.3,68.0,29.90,NNE,20,0.0,0.0,99,0.00,,,0.00,Wunderground v.1.15,2013-05-23 02:10:00,
2013-05-22 22:15:00,68.2,67.9,29.91,NNE,19,0.0,0.0,99,0.00,,,0.00,Wunderground v.1.15,2013-05-23 02:15:00,
2013-05-22 22:25:00,68.0,67.7,29.91,NNE,19,0.0,0.0,99,0.00,,,0.00,Wunderground v.1.15,2013-05-23 02:25:00,
2013-05-22 22:30:00,67.9,67.6,29.91,NNE,19,0.0,0.0,99,0.00,,,0.00,Wunderground v.1.15,2013-05-23 02:30:00,
2013-05-22 22:40:00,67.8,67.8,29.91,NNE,19,0.0,0.0,100,0.00,,,0.00,Wunderground v.1.15,2013-05-23 02:40:00,
2013-05-22 22:50:00,67.7,67.7,29.91,NNE,19,0.0,0.0,100,0.00,,,0.00,Wunderground v.1.15,2013-05-23 02:50:00,
2013-05-22 22:55:00,67.7,67.7,29.91,NNE,19,0.0,0.0,100,0.00,,,0.00,Wunderground v.1.15,2013-05-23 02:55:00,
2013-05-22 23:05:00,67.6,67.6,29.91,NNE,20,0.0,0.0,100,0.00,,,0.00,Wunderground v.1.15,2013-05-23 03:05:00,
2013-05-22 23:10:00,67.6,67.6,29.91,NNE,19,0.0,0.0,100,0.00,,,0.00,Wunderground v.1.15,2013-05-23 03:10:00,
2013-05-22 23:20:00,67.6,67.6,29.91,NNE,19,0.0,0.0,100,0.00,,,0.00,Wunderground v.1.15,2013-05-23 03:20:00,
2013-05-22 23:25:00,67.6,67.6,29.91,NNE,20,0.0,0.0,100,0.00,,,0.00,Wunderground v.1.15,2013-05-23 03:25:00,
2013-05-22 23:30:00,67.6,67.6,29.90,NNE,20,0.0,0.0,100,0.00,,,0.00,Wunderground v.1.15,2013-05-23 03:30:00,
2013-05-22 23:40:00,67.6,67.6,29.90,NNE,20,0.0,0.0,100,0.00,,,0.00,Wunderground v.1.15,2013-05-23 03:40:00,
2013-05-22 23:50:00,67.6,67.6,29.90,NNE,19,0.0,0.0,100,0.00,,,0.00,Wunderground v.1.15,2013-05-23 03:50:00,